Latest Weather Observations for Melbourne Airport

IDV60801

Issued at 9:35 am EST Wednesday 3 September 2014 (issued every 30 minutes, with the page automatically refreshed every 10 minutes)

About weather observations | Map of weather stations | Latest weather observations for VIC | Other Formats
Station Details ID: 086282 Name: MELBOURNE AIRPORT Lat: -37.67 Lon: 144.83 Height: 113.4 m
Data from the previous 72 hours. | See also: Recent months at Melbourne Airport
Date/Time
EST
Temp
°C
App
Temp
°C
Dew
Point
Rel
Hum
%
Delta-T
°C
Wind Press
QNH
hPa
Press
MSL
hPa
Rain
since 9 am
mm
Dir
 
Spd
km/h
Gust
km/h
Spd
kts
Gust
kts
03/09:30am 9.7 6.7 5.8 77 1.8 SSW 11 15 6 8 1023.4 1023.5 0.0
03/09:00am 9.2 5.6 5.2 76 1.8 SW 13 17 7 9 1023.7 1023.8 1.6
03/08:30am 8.3 3.9 4.9 79 1.5 SW 17 24 9 13 1023.6 1023.7 1.6
03/08:00am 7.9 4.1 3.7 75 1.8 SW 13 17 7 9 1023.4 1023.5 1.6
03/07:30am 7.1 4.0 3.8 79 1.4 SW 9 15 5 8 1023.3 1023.4 1.6
03/07:00am 6.0 2.9 3.6 84 1.0 WSW 9 11 5 6 1022.9 1023.0 1.6
03/06:30am 5.7 1.7 3.0 83 1.1 WSW 13 17 7 9 1022.8 1022.9 1.6
03/06:00am 4.9 0.9 3.0 87 0.8 WSW 13 15 7 8 1022.8 1022.9 1.6
03/05:30am 4.6 1.4 2.9 89 0.7 W 9 13 5 7 1022.7 1022.8 1.6
03/05:00am 5.0 1.8 3.3 89 0.7 WSW 9 11 5 6 1022.7 1022.8 1.6
03/04:30am 6.1 2.6 3.7 84 1.0 SW 11 13 6 7 1022.6 1022.7 1.6
03/04:00am 6.2 2.5 4.3 88 0.8 WSW 13 15 7 8 1022.6 1022.7 1.6
03/03:30am 6.2 2.5 4.3 88 0.8 WSW 13 17 7 9 1022.7 1022.8 1.6
03/03:00am 5.5 1.7 4.1 91 0.6 WSW 13 15 7 8 1022.7 1022.8 1.6
03/02:30am 5.4 0.9 4.0 91 0.6 WSW 17 20 9 11 1022.8 1022.9 1.6
03/02:00am 5.4 0.5 4.2 92 0.5 W 19 22 10 12 1023.1 1023.2 1.6
03/01:30am 6.1 1.3 4.5 89 0.7 W 19 22 10 12 1023.2 1023.3 1.6
03/01:00am 5.2 0.7 4.3 94 0.4 W 17 20 9 11 1023.3 1023.4 1.6
03/12:30am 5.4 1.3 4.2 92 0.5 W 15 19 8 10 1023.0 1023.1 1.6
03/12:00am 6.0 1.5 4.4 89 0.7 W 17 20 9 11 1023.0 1023.1 1.4
 
Date/Time
EST
Temp
°C
App
Temp
°C
Dew
Point
Rel
Hum
%
Delta-T
°C
Wind Press
QNH
hPa
Press
MSL
hPa
Rain
since 9 am
mm
Dir
 
Spd
km/h
Gust
km/h
Spd
kts
Gust
kts
02/11:30pm 6.0 2.3 4.6 91 0.6 WSW 13 15 7 8 1023.0 1023.1 1.4
02/11:00pm 6.1 2.4 4.2 88 0.8 WSW 13 15 7 8 1023.2 1023.3 1.4
02/10:30pm 6.2 2.4 4.1 86 0.9 WSW 13 13 7 7 1023.3 1023.4 1.4
02/10:00pm 6.8 2.7 4.3 84 1.1 W 15 19 8 10 1023.3 1023.4 1.4
02/09:30pm 7.6 3.4 5.8 88 0.8 WSW 17 19 9 10 1023.2 1023.3 1.4
02/09:00pm 8.2 4.8 6.0 86 1.0 SW 13 15 7 8 1023.2 1023.3 1.4
02/08:30pm 8.6 5.1 5.5 81 1.4 SSW 13 17 7 9 1023.1 1023.2 1.4
02/08:00pm 8.6 4.3 5.3 80 1.5 SSW 17 24 9 13 1022.9 1023.0 1.4
02/07:30pm 8.8 3.9 5.0 77 1.7 S 20 30 11 16 1022.7 1022.8 1.4
02/07:00pm 8.5 3.8 5.9 84 1.2 SSW 20 32 11 17 1022.4 1022.5 1.4
02/06:30pm 8.6 4.7 6.9 89 0.8 SSW 17 22 9 12 1022.2 1022.3 1.4
02/06:00pm 8.2 2.8 6.2 87 0.9 S 24 37 13 20 1021.9 1022.0 1.0
02/05:54pm 8.4 1.4 6.2 86 1.0 S 32 37 17 20 1021.9 1022.0 0.8
02/05:30pm 9.0 3.6 6.2 82 1.3 SSW 24 33 13 18 1021.4 1021.5 0.2
02/05:00pm 9.5 3.3 6.0 79 1.6 SSW 28 35 15 19 1021.0 1021.1 0.0
02/04:30pm 11.4 4.9 2.9 56 3.7 S 26 35 14 19 1020.6 1020.6 0.0
02/04:00pm 11.7 3.8 2.2 52 4.1 S 33 41 18 22 1020.2 1020.2 0.0
02/03:30pm 11.6 4.0 3.8 59 3.5 S 33 46 18 25 1020.1 1020.1 0.0
02/03:00pm 12.2 3.9 4.0 57 3.7 S 37 46 20 25 1019.8 1019.8 0.0
02/02:39pm 11.6 3.5 3.2 56 3.7 S 35 54 19 29 1019.7 1019.7 0.0
02/02:30pm 11.8 3.4 3.7 57 3.6 S 37 48 20 26 1019.6 1019.6 0.0
02/02:00pm 12.1 3.7 3.9 57 3.7 S 37 48 20 26 1019.4 1019.4 0.0
02/01:38pm 12.7 4.6 3.0 51 4.3 S 35 54 19 29 1019.3 1019.3 0.0
02/01:30pm 12.8 4.2 2.6 50 4.5 S 37 50 20 27 1019.2 1019.2 0.0
02/01:00pm 12.0 3.0 2.6 52 4.1 S 39 50 21 27 1019.2 1019.2 0.0
02/12:30pm 12.5 3.3 1.5 47 4.7 S 39 54 21 29 1019.1 1019.1 0.0
02/12:00pm 12.9 4.2 4.1 55 4.0 SSW 39 50 21 27 1018.9 1018.9 0.0
02/11:30am 11.9 4.3 3.9 58 3.6 S 33 48 18 26 1018.9 1018.9 0.0
02/11:00am 11.7 5.0 8.0 78 1.8 SW 33 44 18 24 1019.1 1019.1 0.0
02/10:30am 11.5 5.5 7.1 74 2.1 SSW 28 39 15 21 1018.9 1018.9 0.0
02/10:00am 10.6 4.3 7.5 81 1.5 SW 30 41 16 22 1018.6 1018.6 0.0
02/09:30am 10.5 4.5 6.9 78 1.7 SW 28 37 15 20 1018.5 1018.5 0.0
02/09:00am 9.9 4.5 6.2 78 1.7 WSW 24 32 13 17 1018.2 1018.2 9.0
02/08:30am 9.4 3.7 6.6 83 1.3 WSW 26 33 14 18 1017.9 1018.0 9.0
02/08:00am 8.5 4.4 6.3 86 1.0 WSW 17 20 9 11 1017.3 1017.4 9.0
02/07:30am 7.9 3.7 5.7 86 1.0 WSW 17 24 9 13 1017.1 1017.2 9.0
02/07:00am 7.0 2.5 5.9 93 0.5 WSW 19 24 10 13 1016.8 1016.9 9.0
02/06:30am 7.2 3.4 5.9 91 0.6 W 15 20 8 11 1016.2 1016.3 9.0
02/06:00am 7.7 3.7 6.6 93 0.5 WSW 17 22 9 12 1015.8 1015.9 9.0
02/05:30am 7.7 3.7 6.6 93 0.5 SW 17 22 9 12 1015.4 1015.5 9.0
02/05:00am 7.7 1.8 5.9 88 0.8 WSW 26 33 14 18 1015.0 1015.1 9.0
02/04:30am 7.5 3.8 6.2 91 0.6 WSW 15 19 8 10 1014.7 1014.8 9.0
02/04:00am 7.2 3.1 6.1 93 0.5 WSW 17 19 9 10 1014.4 1014.5 9.0
02/03:30am 7.8 3.4 6.5 91 0.6 W 19 22 10 12 1014.2 1014.3 9.0
02/03:00am 7.8 4.6 6.7 93 0.5 W 13 17 7 9 1013.9 1014.0 9.0
02/02:30am 7.9 3.9 6.8 93 0.5 WSW 17 24 9 13 1014.0 1014.1 8.8
02/02:00am 8.1 4.8 6.6 90 0.7 SW 13 17 7 9 1014.0 1014.1 8.6
02/01:30am 7.8 3.3 6.3 90 0.7 W 19 24 10 13 1013.7 1013.8 8.6
02/01:00am 7.9 3.9 6.6 91 0.6 W 17 20 9 11 1013.5 1013.5 8.6
02/12:30am 8.4 3.8 6.7 89 0.8 W 20 26 11 14 1013.5 1013.5 8.2
02/12:00am 8.5 3.9 6.3 86 1.0 W 20 26 11 14 1013.3 1013.3 8.2
 
Date/Time
EST
Temp
°C
App
Temp
°C
Dew
Point
Rel
Hum
%
Delta-T
°C
Wind Press
QNH
hPa
Press
MSL
hPa
Rain
since 9 am
mm
Dir
 
Spd
km/h
Gust
km/h
Spd
kts
Gust
kts
01/11:30pm 8.1 4.1 6.6 90 0.7 W 17 20 9 11 1013.1 1013.1 8.2
01/11:00pm 8.8 5.2 6.9 88 0.9 W 15 20 8 11 1012.9 1012.9 8.2
01/10:30pm 8.8 4.8 6.7 87 1.0 W 17 22 9 12 1012.8 1012.8 8.2
01/10:00pm 8.9 5.7 7.0 88 0.9 W 13 15 7 8 1012.7 1012.7 8.2
01/09:30pm 9.1 7.1 6.3 83 1.3 NW 6 9 3 5 1012.6 1012.6 8.2
01/09:00pm 8.9 6.3 6.3 84 1.2 NNW 9 15 5 8 1012.6 1012.6 8.2
01/08:30pm 9.0 6.0 6.2 82 1.3 NW 11 17 6 9 1012.3 1012.3 8.2
01/08:00pm 8.6 5.7 6.7 88 0.9 N 11 13 6 7 1011.9 1011.9 8.2
01/07:30pm 8.4 5.6 6.9 90 0.7 NW 11 17 6 9 1011.7 1011.7 8.2
01/07:00pm 8.2 5.8 7.1 93 0.5 SW 9 13 5 7 1011.6 1011.6 8.2
01/06:48pm 8.4 5.2 6.9 90 0.7 SSW 13 20 7 11 1011.4 1011.4 8.2
01/06:30pm 9.0 4.6 7.5 90 0.7 SW 20 37 11 20 1011.5 1011.5 7.6
01/06:09pm 9.9 6.3 8.5 91 0.7 SSW 17 22 9 12 1011.0 1011.0 3.0
01/06:00pm 10.8 7.3 8.6 86 1.1 SSW 17 24 9 13 1010.6 1010.6 1.4
01/05:30pm 10.9 8.1 8.7 86 1.1 W 13 15 7 8 1010.0 1010.0 1.4
01/05:00pm 10.9 8.2 8.9 87 1.0 W 13 15 7 8 1009.6 1009.6 1.4
01/04:30pm 11.2 8.8 8.8 85 1.2 WSW 11 13 6 7 1009.4 1009.4 1.2
01/04:00pm 11.3 9.4 9.1 86 1.1 W 9 11 5 6 1009.3 1009.3 1.2
01/03:30pm 11.1 9.2 9.1 87 1.0 W 9 13 5 7 1008.9 1009.0 1.2
01/03:00pm 11.3 8.8 8.0 80 1.6 W 11 13 6 7 1008.9 1009.0 0.8
01/02:30pm 10.9 5.5 7.8 81 1.5 SW 26 35 14 19 1008.8 1008.9 0.8
01/02:14pm 11.8 5.7 6.6 70 2.5 SW 28 39 15 21 1008.6 1008.7 0.8
01/02:00pm 12.9 10.9 10.2 84 1.4 N 11 13 6 7 1008.3 1008.4 0.8
01/01:30pm 12.6 10.1 9.7 82 1.5 N 13 17 7 9 1008.4 1008.5 0.8
01/01:00pm 12.2 8.9 9.5 83 1.4 N 17 24 9 13 1008.9 1009.0 0.4
01/12:30pm 12.3 8.5 9.8 85 1.3 N 20 26 11 14 1008.4 1008.5 0.4
01/12:00pm 12.5 10.6 8.9 79 1.8 WNW 9 11 5 6 1009.3 1009.3 0.4
01/11:30am 12.5 9.5 7.8 73 2.3 N 13 17 7 9 1009.0 1009.1 0.2
01/11:00am 12.7 8.7 6.5 66 3.0 N 17 22 9 12 1009.1 1009.2 0.0
01/10:30am 13.5 8.6 5.2 57 3.9 N 20 28 11 15 1009.4 1009.4 0.0
01/10:00am 13.8 7.2 4.3 52 4.4 N 28 37 15 20 1009.4 1009.4 0.0
01/09:30am 12.9 6.1 5.0 58 3.7 N 30 33 16 18 1009.4 1009.5 0.0
01/09:00am 12.6 4.7 4.3 57 3.8 N 35 43 19 23 1009.0 1009.2 0.0
01/08:30am 12.6 3.9 4.3 57 3.8 N 39 52 21 28 1008.9 1009.1 0.0
01/08:00am 12.7 4.0 3.9 55 4.0 N 39 50 21 27 1009.0 1009.2 0.0
01/07:30am 12.6 3.5 4.0 56 3.9 N 41 50 22 27 1008.9 1009.1 0.0
01/07:00am 12.6 3.9 4.0 56 3.9 N 39 52 21 28 1008.6 1008.8 0.0
01/06:30am 13.0 3.9 3.8 53 4.2 N 41 52 22 28 1008.7 1008.9 0.0
01/06:00am 13.3 4.1 3.6 52 4.4 N 41 52 22 28 1009.3 1009.4 0.0
01/05:30am 13.5 3.7 3.6 51 4.5 N 44 61 24 33 1009.0 1009.2 0.0
01/05:00am 13.6 3.9 3.7 51 4.5 N 44 57 24 31 1008.6 1008.8 0.0
01/04:30am 13.9 3.4 3.6 50 4.7 N 48 59 26 32 1008.2 1008.4 0.0
01/04:00am 14.2 3.7 3.5 48 4.9 N 48 63 26 34 1007.7 1007.9 0.0
01/03:30am 13.9 2.7 3.9 51 4.6 N 52 70 28 38 1008.5 1008.7 0.0
01/03:23am 13.9 3.1 3.9 51 4.6 N 50 69 27 37 1008.7 1008.9 0.0
01/03:00am 14.0 3.9 4.0 51 4.6 N 46 59 25 32 1008.8 1009.0 0.0
01/02:30am 14.0 3.6 4.3 52 4.5 N 48 65 26 35 1009.1 1009.3 0.0
01/02:00am 14.1 5.1 4.7 53 4.4 N 41 52 22 28 1009.9 1010.0 0.0
01/01:30am 14.5 5.9 4.7 52 4.6 N 39 50 21 27 1010.5 1010.6 0.0
01/01:00am 15.0 5.6 4.6 50 4.9 N 43 56 23 30 1010.7 1010.8 0.0
01/12:30am 15.5 5.5 4.4 47 5.2 N 46 61 25 33 1010.5 1010.6 0.0
01/12:00am 15.8 5.1 4.6 47 5.3 N 50 63 27 34 1010.2 1010.3 0.0
 
Date/Time
EST
Temp
°C
App
Temp
°C
Dew
Point
Rel
Hum
%
Delta-T
°C
Wind Press
QNH
hPa
Press
MSL
hPa
Rain
since 9 am
mm
Dir
 
Spd
km/h
Gust
km/h
Spd
kts
Gust
kts
31/11:30pm 15.5 4.9 5.2 50 4.9 N 50 74 27 40 1010.2 1010.3 0.0
31/11:00pm 15.7 5.5 5.3 50 5.0 N 48 67 26 36 1010.0 1010.1 0.0
31/10:30pm 15.8 6.0 5.4 50 5.0 N 46 59 25 32 1010.9 1011.0 0.0
31/10:00pm 15.9 8.2 5.5 50 5.0 N 35 48 19 26 1012.0 1012.1 0.0
31/09:46pm 15.8 9.2 5.9 51 4.8 N 30 50 16 27 1012.4 1012.5 0.0
31/09:30pm 15.7 10.0 6.5 54 4.5 N 26 41 14 22 1012.8 1012.9 0.0
31/09:00pm 15.7 9.7 7.0 56 4.3 N 28 37 15 20 1012.9 1013.0 0.0
31/08:30pm 15.3 12.2 7.2 58 4.0 NNE 13 17 7 9 1013.0 1013.1 0.0
31/08:00pm 14.8 11.4 7.6 62 3.6 NNE 15 20 8 11 1013.3 1013.4 0.0
31/07:30pm 15.6 11.1 7.1 57 4.2 NNE 20 28 11 15 1013.3 1013.4 0.0
31/07:00pm 16.0 11.2 7.2 56 4.4 NNE 22 32 12 17 1013.3 1013.4 0.0
31/06:30pm 16.1 10.9 7.3 56 4.4 NNE 24 32 13 17 1013.5 1013.6 0.0
31/06:00pm 16.7 11.8 7.1 53 4.8 N 22 33 12 18 1013.9 1014.0 0.0
31/05:30pm 16.7 12.8 7.3 54 4.7 N 17 28 9 15 1014.2 1014.3 0.0
31/05:00pm 17.4 11.3 6.8 49 5.3 N 28 39 15 21 1014.3 1014.4 0.0
31/04:30pm 17.6 13.4 7.5 51 5.1 NNE 19 30 10 16 1014.2 1014.3 0.0
31/04:00pm 18.0 13.8 7.3 49 5.4 NNE 19 28 10 15 1014.2 1014.3 0.0
31/03:30pm 18.4 11.6 6.9 47 5.8 NNE 32 41 17 22 1014.5 1014.7 0.0
31/03:00pm 18.8 11.8 6.1 43 6.3 NNE 32 43 17 23 1014.8 1015.0 0.0
31/02:30pm 18.8 10.8 5.9 43 6.4 N 37 46 20 25 1015.1 1015.3 0.0
31/02:00pm 20.0 12.1 6.0 40 7.0 N 37 48 20 26 1015.2 1015.4 0.0
31/01:30pm 19.7 10.8 5.0 38 7.2 N 41 54 22 29 1015.5 1015.7 0.0
31/01:00pm 20.6 11.3 4.9 35 7.7 N 43 56 23 30 1015.8 1016.0 0.0
31/12:30pm 20.1 10.1 4.4 35 7.6 N 46 54 25 29 1016.1 1016.3 0.0
31/12:00pm 19.7 10.1 4.4 36 7.4 N 44 57 24 31 1016.5 1016.7 0.0
31/11:30am 19.3 10.7 6.6 43 6.4 N 41 52 22 28 1017.0 1017.2 0.0
31/11:00am 19.1 9.8 5.2 40 6.8 N 43 52 23 28 1017.3 1017.5 0.0
31/10:30am 18.3 9.3 4.5 40 6.6 N 41 52 22 28 1017.6 1017.8 0.0
31/10:00am 17.5 8.5 4.8 43 6.1 N 41 52 22 28 1017.9 1018.1 0.0

Other Formats:

Comma delimited format used in spreadsheet applications
http://www.bom.gov.au/fwo/IDV60801/IDV60801.94866.axf

JavaScript Object Notation format (JSON) in row-major order
http://www.bom.gov.au/fwo/IDV60801/IDV60801.94866.json